Time,TemperatureF,DewpointF,PressureIn,WindDirection,WindDirectionDegrees,WindSpeedMPH,WindSpeedGustMPH,Humidity,HourlyPrecipIn,Conditions,Clouds,dailyrainin,SoftwareType,DateUTC
2013-01-28 00:09:00,30.7,20.3,30.26,NE,45,4.7,4.7,65,0.00,,,0.00,WUHU21623XXSP,2013-01-28 05:09:00,
2013-01-28 00:19:00,30.6,19.8,30.26,NE,45,2.0,2.2,64,0.00,,,0.00,WUHU21623XXSP,2013-01-28 05:19:00,
2013-01-28 00:29:00,30.6,19.8,30.27,NNE,22,0.0,0.0,64,0.00,,,0.00,WUHU21623XXSP,2013-01-28 05:29:00,
2013-01-28 00:39:00,30.7,19.9,30.27,NNE,22,0.0,0.0,64,0.00,,,0.00,WUHU21623XXSP,2013-01-28 05:39:00,
2013-01-28 00:49:00,30.7,19.9,30.27,NNE,22,0.0,0.0,64,0.00,,,0.00,WUHU21623XXSP,2013-01-28 05:49:00,
2013-01-28 00:59:00,30.7,20.3,30.27,NNE,22,0.0,0.0,65,0.00,,,0.00,WUHU21623XXSP,2013-01-28 05:59:00,
2013-01-28 01:09:00,30.7,20.7,30.26,WNW,292,0.0,0.0,66,0.00,,,0.00,WUHU21623XXSP,2013-01-28 06:09:00,
2013-01-28 01:19:00,30.7,20.7,30.26,WNW,292,0.0,0.0,66,0.00,,,0.00,WUHU21623XXSP,2013-01-28 06:19:00,
2013-01-28 01:29:00,30.7,21.0,30.26,WNW,292,0.0,0.0,67,0.00,,,0.00,WUHU21623XXSP,2013-01-28 06:29:00,
2013-01-28 01:39:00,30.7,21.7,30.26,SW,225,1.8,4.3,69,0.00,,,0.00,WUHU21623XXSP,2013-01-28 06:39:00,
2013-01-28 01:49:00,30.7,21.7,30.25,SW,225,0.0,3.4,69,0.00,,,0.00,WUHU21623XXSP,2013-01-28 06:49:00,
2013-01-28 01:59:00,30.7,22.4,30.25,SW,225,2.5,2.5,71,0.00,,,0.00,WUHU21623XXSP,2013-01-28 06:59:00,
2013-01-28 02:09:00,30.7,22.4,30.24,SW,225,0.0,1.6,71,0.00,,,0.00,WUHU21623XXSP,2013-01-28 07:09:00,
2013-01-28 02:19:00,30.7,22.7,30.24,SW,225,0.0,0.0,72,0.00,,,0.00,WUHU21623XXSP,2013-01-28 07:19:00,
2013-01-28 02:29:00,30.7,23.1,30.24,SW,225,0.0,0.0,73,0.00,,,0.00,WUHU21623XXSP,2013-01-28 07:29:00,
2013-01-28 02:39:00,30.7,23.4,30.24,SW,225,2.7,2.7,74,0.00,,,0.00,WUHU21623XXSP,2013-01-28 07:39:00,
2013-01-28 02:49:00,30.7,23.7,30.22,SSW,202,2.2,3.8,75,0.00,,,0.00,WUHU21623XXSP,2013-01-28 07:49:00,
2013-01-28 02:59:00,30.9,23.9,30.23,SSW,202,0.0,0.0,75,0.00,,,0.00,WUHU21623XXSP,2013-01-28 07:59:00,
2013-01-28 03:09:00,30.9,23.9,30.22,SSW,202,0.0,0.0,75,0.00,,,0.00,WUHU21623XXSP,2013-01-28 08:09:00,
2013-01-28 03:19:00,31.3,24.9,30.21,SW,225,0.0,0.0,77,0.00,,,0.00,WUHU21623XXSP,2013-01-28 08:19:00,
2013-01-28 03:29:00,31.5,25.4,30.21,SSW,202,0.0,0.0,78,0.01,,,0.01,WUHU21623XXSP,2013-01-28 08:29:00,
2013-01-28 03:39:00,31.6,25.6,30.20,SW,225,0.0,1.1,78,0.01,,,0.01,WUHU21623XXSP,2013-01-28 08:39:00,
2013-01-28 03:49:00,31.8,26.1,30.21,SW,225,0.0,0.0,79,0.02,,,0.02,WUHU21623XXSP,2013-01-28 08:49:00,
2013-01-28 03:59:00,32.0,26.4,30.20,SSW,202,2.2,2.7,80,0.02,,,0.02,WUHU21623XXSP,2013-01-28 08:59:00,
2013-01-28 04:09:00,32.2,26.8,30.20,SSW,202,0.0,1.1,80,0.03,,,0.03,WUHU21623XXSP,2013-01-28 09:09:00,
2013-01-28 04:19:00,32.2,27.1,30.20,SSW,202,0.0,0.0,81,0.04,,,0.04,WUHU21623XXSP,2013-01-28 09:19:00,
2013-01-28 04:29:00,32.4,27.2,30.20,SSW,202,0.0,0.0,81,0.05,,,0.05,WUHU21623XXSP,2013-01-28 09:29:00,
2013-01-28 04:39:00,32.5,27.7,30.22,SW,225,0.0,0.0,82,0.05,,,0.06,WUHU21623XXSP,2013-01-28 09:39:00,
2013-01-28 04:49:00,32.2,27.3,30.22,SSW,202,0.0,0.0,82,0.05,,,0.07,WUHU21623XXSP,2013-01-28 09:49:00,
2013-01-28 04:59:00,32.4,27.5,30.21,SSW,202,0.0,0.0,82,0.08,,,0.11,WUHU21623XXSP,2013-01-28 09:59:00,
2013-01-28 05:09:00,32.4,27.5,30.21,SSW,202,0.0,0.0,82,0.08,,,0.11,WUHU21623XXSP,2013-01-28 10:09:00,
2013-01-28 05:19:00,32.5,27.9,30.20,SSW,202,0.0,0.0,83,0.09,,,0.14,WUHU21623XXSP,2013-01-28 10:19:00,
2013-01-28 05:29:00,32.9,28.3,30.22,SSW,202,0.0,0.0,83,0.08,,,0.14,WUHU21623XXSP,2013-01-28 10:29:00,
2013-01-28 05:39:00,33.1,28.4,30.19,SSW,202,0.0,0.0,83,0.09,,,0.16,WUHU21623XXSP,2013-01-28 10:39:00,
2013-01-28 05:49:00,33.3,28.9,30.19,SSW,202,0.0,0.0,84,0.09,,,0.18,WUHU21623XXSP,2013-01-28 10:49:00,
2013-01-28 05:59:00,33.4,29.0,30.19,SSW,202,0.0,0.0,84,0.07,,,0.18,WUHU21623XXSP,2013-01-28 10:59:00,
2013-01-28 06:09:00,33.4,29.0,30.19,SSW,202,0.0,0.0,84,0.07,,,0.18,WUHU21623XXSP,2013-01-28 11:09:00,
2013-01-28 06:19:00,33.4,29.0,30.18,SSW,202,0.0,0.0,84,0.06,,,0.20,WUHU21623XXSP,2013-01-28 11:19:00,
2013-01-28 06:29:00,33.6,29.2,30.18,SSW,202,0.0,0.0,84,0.05,,,0.21,WUHU21623XXSP,2013-01-28 11:29:00,
2013-01-28 06:39:00,33.8,29.7,30.18,SSW,202,0.0,0.0,85,0.05,,,0.22,WUHU21623XXSP,2013-01-28 11:39:00,
2013-01-28 06:49:00,34.0,29.8,30.18,SSW,202,0.0,0.0,85,0.06,,,0.24,WUHU21623XXSP,2013-01-28 11:49:00,
2013-01-28 06:59:00,34.3,30.2,30.18,SSW,202,0.0,0.0,85,0.07,,,0.25,WUHU21623XXSP,2013-01-28 11:59:00,
2013-01-28 07:09:00,35.4,31.6,30.17,SW,225,0.0,3.6,86,0.07,,,0.26,WUHU21623XXSP,2013-01-28 12:09:00,
2013-01-28 07:19:00,36.3,32.5,30.19,SSW,202,0.0,0.0,86,0.06,,,0.26,WUHU21623XXSP,2013-01-28 12:19:00,
2013-01-28 07:29:00,37.0,33.2,30.19,SSW,202,0.0,0.0,86,0.05,,,0.27,WUHU21623XXSP,2013-01-28 12:29:00,
2013-01-28 07:39:00,37.9,34.1,30.18,SSW,202,0.0,0.0,86,0.07,,,0.30,WUHU21623XXSP,2013-01-28 12:39:00,
2013-01-28 07:49:00,38.1,34.3,30.17,SSW,202,0.0,0.0,86,0.07,,,0.30,WUHU21623XXSP,2013-01-28 12:49:00,
2013-01-28 07:59:00,38.5,34.6,30.17,South,180,0.0,0.0,86,0.06,,,0.30,WUHU21623XXSP,2013-01-28 12:59:00,
2013-01-28 08:09:00,39.0,35.2,30.17,South,180,0.0,0.0,86,0.04,,,0.30,WUHU21623XXSP,2013-01-28 13:09:00,
2013-01-28 08:19:00,39.4,35.5,30.16,SSW,202,0.0,0.0,86,0.04,,,0.30,WUHU21623XXSP,2013-01-28 13:19:00,
2013-01-28 08:29:00,39.7,35.9,30.16,SE,135,0.0,0.0,86,0.02,,,0.31,WUHU21623XXSP,2013-01-28 13:29:00,
2013-01-28 08:39:00,39.9,36.3,30.17,SSW,202,3.8,3.8,87,0.02,,,0.31,WUHU21623XXSP,2013-01-28 13:39:00,
2013-01-28 08:49:00,40.1,36.5,30.17,SSW,202,0.0,1.3,87,0.01,,,0.31,WUHU21623XXSP,2013-01-28 13:49:00,
2013-01-28 08:59:00,40.6,37.0,30.16,SSW,202,0.0,0.0,87,0.01,,,0.31,WUHU21623XXSP,2013-01-28 13:59:00,
2013-01-28 09:09:00,41.2,37.6,30.16,SSW,202,0.0,0.0,87,0.01,,,0.31,WUHU21623XXSP,2013-01-28 14:09:00,
2013-01-28 09:19:00,41.4,37.7,30.15,South,180,0.0,0.0,87,0.01,,,0.31,WUHU21623XXSP,2013-01-28 14:19:00,
2013-01-28 09:29:00,41.9,38.3,30.15,South,180,0.0,0.0,87,0.00,,,0.31,WUHU21623XXSP,2013-01-28 14:29:00,
2013-01-28 09:39:00,42.1,38.5,30.14,SSW,202,0.0,1.8,87,0.00,,,0.31,WUHU21623XXSP,2013-01-28 14:39:00,
2013-01-28 09:49:00,42.3,38.6,30.14,SSW,202,1.8,1.8,87,0.00,,,0.31,WUHU21623XXSP,2013-01-28 14:49:00,
2013-01-28 09:59:00,42.4,38.8,30.14,South,180,0.0,0.0,87,0.00,,,0.31,WUHU21623XXSP,2013-01-28 14:59:00,
2013-01-28 10:09:00,42.6,39.0,30.13,South,180,0.0,4.5,87,0.00,,,0.31,WUHU21623XXSP,2013-01-28 15:09:00,
2013-01-28 10:19:00,43.0,39.4,30.14,SW,225,0.0,6.0,87,0.00,,,0.31,WUHU21623XXSP,2013-01-28 15:19:00,
2013-01-28 10:29:00,43.3,39.7,30.13,South,180,0.0,2.2,87,0.00,,,0.31,WUHU21623XXSP,2013-01-28 15:29:00,
2013-01-28 10:39:00,44.1,40.4,30.13,SSW,202,4.3,4.3,87,0.00,,,0.31,WUHU21623XXSP,2013-01-28 15:39:00,
2013-01-28 10:49:00,44.8,40.9,30.13,SSW,202,2.7,2.7,86,0.00,,,0.31,WUHU21623XXSP,2013-01-28 15:49:00,
2013-01-28 10:59:00,45.7,41.8,30.12,SW,225,7.6,7.6,86,0.00,,,0.31,WUHU21623XXSP,2013-01-28 15:59:00,
2013-01-28 11:09:00,46.6,42.0,30.12,SW,225,7.8,7.8,84,0.00,,,0.31,WUHU21623XXSP,2013-01-28 16:09:00,
2013-01-28 11:19:00,46.9,42.0,30.11,SSE,157,6.0,7.8,83,0.00,,,0.31,WUHU21623XXSP,2013-01-28 16:19:00,
2013-01-28 11:29:00,47.5,42.2,30.11,South,180,1.8,6.9,82,0.00,,,0.31,WUHU21623XXSP,2013-01-28 16:29:00,
2013-01-28 11:39:00,48.9,43.3,30.11,SSW,202,2.2,13.9,81,0.00,,,0.31,WUHU21623XXSP,2013-01-28 16:39:00,
2013-01-28 11:49:00,49.6,43.7,30.11,SSW,202,4.9,8.1,80,0.00,,,0.31,WUHU21623XXSP,2013-01-28 16:49:00,
2013-01-28 11:59:00,51.1,44.8,30.10,SW,225,6.3,6.3,79,0.00,,,0.31,WUHU21623XXSP,2013-01-28 16:59:00,
2013-01-28 12:09:00,50.7,43.8,30.09,SW,225,9.4,9.4,77,0.00,,,0.31,WUHU21623XXSP,2013-01-28 17:09:00,
2013-01-28 12:19:00,50.2,43.6,30.09,SSW,202,5.1,5.1,78,0.00,,,0.31,WUHU21623XXSP,2013-01-28 17:19:00,
2013-01-28 12:29:00,50.4,43.7,30.08,SW,225,2.9,2.9,78,0.00,,,0.31,WUHU21623XXSP,2013-01-28 17:29:00,
2013-01-28 12:39:00,50.2,43.6,30.07,SW,225,12.1,12.1,78,0.00,,,0.31,WUHU21623XXSP,2013-01-28 17:39:00,
2013-01-28 12:49:00,50.4,43.7,30.08,SW,225,5.4,12.1,78,0.00,,,0.31,WUHU21623XXSP,2013-01-28 17:49:00,
2013-01-28 12:59:00,50.4,43.7,30.07,SSE,157,2.7,7.2,78,0.00,,,0.31,WUHU21623XXSP,2013-01-28 17:59:00,
2013-01-28 13:09:00,50.4,43.7,30.07,SW,225,6.7,6.7,78,0.00,,,0.31,WUHU21623XXSP,2013-01-28 18:09:00,
2013-01-28 13:19:00,50.2,43.9,30.06,SSW,202,0.0,6.7,79,0.00,,,0.31,WUHU21623XXSP,2013-01-28 18:19:00,
2013-01-28 13:29:00,49.3,43.6,30.06,SSW,202,0.0,2.7,81,0.02,,,0.34,WUHU21623XXSP,2013-01-28 18:29:00,
2013-01-28 13:39:00,48.9,43.6,30.06,South,180,0.0,2.5,82,0.05,,,0.36,WUHU21623XXSP,2013-01-28 18:39:00,
2013-01-28 13:49:00,48.9,43.9,30.06,SSW,202,0.0,0.0,83,0.05,,,0.37,WUHU21623XXSP,2013-01-28 18:49:00,
2013-01-28 13:59:00,48.7,43.8,30.06,SSW,202,0.0,0.0,84,0.06,,,0.37,WUHU21623XXSP,2013-01-28 18:59:00,
2013-01-28 14:09:00,48.6,43.9,30.06,SSW,202,0.0,0.0,84,0.06,,,0.37,WUHU21623XXSP,2013-01-28 19:09:00,
2013-01-28 14:19:00,48.4,43.7,30.05,SSW,202,0.0,0.0,84,0.05,,,0.38,WUHU21623XXSP,2013-01-28 19:19:00,
2013-01-28 14:29:00,48.0,43.4,30.06,SSW,202,0.0,0.0,84,0.04,,,0.39,WUHU21623XXSP,2013-01-28 19:29:00,
2013-01-28 14:39:00,48.0,43.7,30.05,SSW,202,0.0,1.6,85,0.05,,,0.41,WUHU21623XXSP,2013-01-28 19:39:00,
2013-01-28 14:49:00,48.0,43.7,30.05,SSW,202,0.0,1.8,85,0.04,,,0.41,WUHU21623XXSP,2013-01-28 19:49:00,
2013-01-28 14:59:00,47.8,43.5,30.06,SSW,202,0.0,0.0,85,0.04,,,0.41,WUHU21623XXSP,2013-01-28 19:59:00,
2013-01-28 15:09:00,47.8,43.8,30.06,SSW,202,0.0,0.0,86,0.05,,,0.42,WUHU21623XXSP,2013-01-28 20:09:00,
2013-01-28 15:19:00,47.8,43.8,30.06,South,180,0.0,0.0,86,0.04,,,0.42,WUHU21623XXSP,2013-01-28 20:19:00,
2013-01-28 15:29:00,47.8,43.8,30.06,SSW,202,0.0,0.0,86,0.02,,,0.42,WUHU21623XXSP,2013-01-28 20:29:00,
2013-01-28 15:39:00,47.8,43.8,30.07,SSW,202,0.0,0.0,86,0.02,,,0.42,WUHU21623XXSP,2013-01-28 20:39:00,
2013-01-28 15:49:00,47.7,43.7,30.07,SSW,202,0.0,0.0,86,0.01,,,0.42,WUHU21623XXSP,2013-01-28 20:49:00,
2013-01-28 15:59:00,47.7,43.7,30.07,SW,225,0.0,0.0,86,0.02,,,0.44,WUHU21623XXSP,2013-01-28 20:59:00,
2013-01-28 16:10:00,47.5,43.7,30.07,SW,225,0.0,0.0,86,0.02,,,0.44,WUHU21623XXSP,2013-01-28 21:10:00,
2013-01-28 16:20:00,47.7,43.7,30.06,SSW,202,0.0,0.0,86,0.04,,,0.46,WUHU21623XXSP,2013-01-28 21:20:00,
2013-01-28 16:30:00,47.7,44.0,30.07,SSW,202,0.0,3.4,87,0.05,,,0.48,WUHU21623XXSP,2013-01-28 21:30:00,
2013-01-28 16:40:00,47.8,44.2,30.07,SSW,202,0.0,5.1,87,0.05,,,0.48,WUHU21623XXSP,2013-01-28 21:40:00,
2013-01-28 16:50:00,47.8,44.2,30.07,SSW,202,2.5,2.5,87,0.05,,,0.48,WUHU21623XXSP,2013-01-28 21:50:00,
2013-01-28 17:00:00,47.8,44.2,30.07,SSW,202,0.0,8.7,87,0.04,,,0.48,WUHU21623XXSP,2013-01-28 22:00:00,
2013-01-28 17:10:00,47.8,44.2,30.07,SSW,202,3.4,3.4,87,0.04,,,0.49,WUHU21623XXSP,2013-01-28 22:10:00,
2013-01-28 17:20:00,47.8,44.2,30.07,SSW,202,3.6,3.6,87,0.01,,,0.49,WUHU21623XXSP,2013-01-28 22:20:00,
2013-01-28 17:30:00,48.0,44.3,30.07,SSW,202,1.8,1.8,87,0.01,,,0.49,WUHU21623XXSP,2013-01-28 22:30:00,
2013-01-28 17:40:00,48.0,44.7,30.06,SSW,202,0.0,2.7,88,0.01,,,0.49,WUHU21623XXSP,2013-01-28 22:40:00,
2013-01-28 17:50:00,48.0,44.7,30.06,SSW,202,1.6,1.6,88,0.01,,,0.49,WUHU21623XXSP,2013-01-28 22:50:00,
2013-01-28 18:00:00,48.2,44.9,30.06,SSW,202,7.6,7.6,88,0.02,,,0.50,WUHU21623XXSP,2013-01-28 23:00:00,
2013-01-28 18:10:00,48.4,45.0,30.07,SSW,202,0.0,1.1,88,0.01,,,0.50,WUHU21623XXSP,2013-01-28 23:10:00,
2013-01-28 18:20:00,48.4,45.0,30.07,South,180,0.0,0.0,88,0.01,,,0.50,WUHU21623XXSP,2013-01-28 23:20:00,
2013-01-28 18:30:00,48.4,45.0,30.07,South,180,1.8,1.8,88,0.01,,,0.50,WUHU21623XXSP,2013-01-28 23:30:00,
2013-01-28 18:40:00,48.4,45.0,30.07,South,180,0.0,5.1,88,0.01,,,0.50,WUHU21623XXSP,2013-01-28 23:40:00,
2013-01-28 18:50:00,48.6,45.2,30.07,South,180,0.0,7.2,88,0.01,,,0.50,WUHU21623XXSP,2013-01-28 23:50:00,
2013-01-28 19:00:00,48.6,45.2,30.07,South,180,2.5,2.5,88,0.00,,,0.50,WUHU21623XXSP,2013-01-29 00:00:00,
2013-01-28 19:10:00,48.7,45.3,30.07,SSW,202,0.0,2.5,88,0.00,,,0.50,WUHU21623XXSP,2013-01-29 00:10:00,
2013-01-28 19:20:00,48.7,45.3,30.07,South,180,0.0,2.2,88,0.00,,,0.50,WUHU21623XXSP,2013-01-29 00:20:00,
2013-01-28 19:30:00,48.9,45.5,30.07,SSW,202,7.8,9.2,88,0.00,,,0.50,WUHU21623XXSP,2013-01-29 00:30:00,
2013-01-28 19:40:00,48.9,45.5,30.07,SSW,202,0.0,6.5,88,0.00,,,0.50,WUHU21623XXSP,2013-01-29 00:40:00,
2013-01-28 19:50:00,48.9,45.5,30.07,SSE,157,6.0,6.0,88,0.00,,,0.50,WUHU21623XXSP,2013-01-29 00:50:00,
2013-01-28 20:00:00,49.1,45.7,30.07,SSW,202,0.0,0.4,88,0.00,,,0.50,WUHU21623XXSP,2013-01-29 01:00:00,
2013-01-28 20:10:00,49.1,45.7,30.07,SSW,202,0.0,1.8,88,0.00,,,0.50,WUHU21623XXSP,2013-01-29 01:10:00,
2013-01-28 20:20:00,49.1,45.7,30.07,SSW,202,0.0,6.5,88,0.00,,,0.50,WUHU21623XXSP,2013-01-29 01:20:00,
2013-01-28 20:30:00,49.1,45.7,30.07,SSW,202,4.9,4.9,88,0.00,,,0.50,WUHU21623XXSP,2013-01-29 01:30:00,
2013-01-28 20:40:00,49.3,45.8,30.07,SSW,202,1.8,4.9,88,0.01,,,0.50,WUHU21623XXSP,2013-01-29 01:40:00,
2013-01-28 20:50:00,49.3,45.8,30.07,SSW,202,0.0,5.1,88,0.01,,,0.50,WUHU21623XXSP,2013-01-29 01:50:00,
2013-01-28 21:00:00,49.5,46.0,30.07,SW,225,1.8,4.0,88,0.01,,,0.50,WUHU21623XXSP,2013-01-29 02:00:00,
2013-01-28 21:10:00,49.6,46.2,30.07,SSW,202,0.0,0.0,88,0.01,,,0.50,WUHU21623XXSP,2013-01-29 02:10:00,
2013-01-28 21:20:00,49.6,46.2,30.07,SSW,202,0.0,4.0,88,0.01,,,0.50,WUHU21623XXSP,2013-01-29 02:20:00,
2013-01-28 21:30:00,49.8,46.3,30.07,SSW,202,0.0,0.7,88,0.02,,,0.51,WUHU21623XXSP,2013-01-29 02:30:00,
2013-01-28 21:40:00,49.8,46.3,30.07,SSW,202,2.7,5.4,88,0.01,,,0.51,WUHU21623XXSP,2013-01-29 02:40:00,
2013-01-28 21:50:00,49.8,46.3,30.07,SSW,202,3.1,3.1,88,0.01,,,0.51,WUHU21623XXSP,2013-01-29 02:50:00,
2013-01-28 22:00:00,49.8,46.3,30.07,SSW,202,3.6,3.6,88,0.01,,,0.51,WUHU21623XXSP,2013-01-29 03:00:00,
2013-01-28 22:10:00,49.8,46.3,30.08,SSW,202,0.0,3.6,88,0.01,,,0.51,WUHU21623XXSP,2013-01-29 03:10:00,
2013-01-28 22:20:00,49.8,46.6,30.08,SSW,202,2.9,2.9,89,0.01,,,0.51,WUHU21623XXSP,2013-01-29 03:20:00,
2013-01-28 22:30:00,50.2,47.0,30.08,SSW,202,0.0,4.9,89,0.00,,,0.51,WUHU21623XXSP,2013-01-29 03:30:00,
2013-01-28 22:40:00,50.2,47.0,30.08,SSW,202,2.0,2.0,89,0.01,,,0.52,WUHU21623XXSP,2013-01-29 03:40:00,
2013-01-28 22:50:00,50.2,47.0,30.08,SW,225,0.0,1.1,89,0.01,,,0.52,WUHU21623XXSP,2013-01-29 03:50:00,
2013-01-28 23:00:00,50.2,47.0,30.07,SSW,202,3.8,3.8,89,0.01,,,0.52,WUHU21623XXSP,2013-01-29 04:00:00,
2013-01-28 23:10:00,50.2,47.0,30.08,SSW,202,0.0,3.8,89,0.01,,,0.52,WUHU21623XXSP,2013-01-29 04:10:00,
2013-01-28 23:20:00,50.4,47.2,30.08,SSW,202,1.6,1.6,89,0.01,,,0.52,WUHU21623XXSP,2013-01-29 04:20:00,
2013-01-28 23:30:00,50.4,47.2,30.08,SSW,202,1.8,3.4,89,0.00,,,0.52,WUHU21623XXSP,2013-01-29 04:30:00,
2013-01-28 23:40:00,50.2,47.0,30.08,SSW,202,0.0,1.6,89,0.01,,,0.53,WUHU21623XXSP,2013-01-29 04:40:00,
2013-01-28 23:50:00,50.4,47.2,30.08,SSW,202,0.0,4.7,89,0.01,,,0.53,WUHU21623XXSP,2013-01-29 04:50:00,